Carlson, Washington
Current Conditions -  °F | °C
As of 8:43 PM on Saturday 25 Oct 2014 (Local Time) from KGRF Reporting Station
Heavy Rain Heavy Rain  
Wind Chill: 52°   Ceiling: 3800
Heat Index: 52°   Visibility: 10mi
Dew Point: 50°   Wind: 16mph
Humidity: 94%   Direction: 180°S
Pressure: 29.62"   Gusts: 29mph
Location:  46.6944°N, 122.245°W
Report Text: KGRF 260343Z AUTO 18014G25KT 10SM +RA SCT014 SCT026 OVC038 11/10 A2962 RMK AO2 PRESRR
Loading
Personal Weather Stations






























Interactive Weather Map New forecast layout! Learn more

10-Day Weather Forecast

Advertisements
Track Severe Weather on mobile